Share

Loyal, WI (54446)

Marshfield Municipal (KMFI) Elev 1276 ft | 44.64 °N, 90.19 °W | Change Station

Current weather conditions updated 13 minutes ago

Overcast
Overcast
39 °F
Feels Like 30 °F
N
17
Wind Variable Wind from ESE
Gusts 26 mph
Sunrise 6:14 AM
Sunset 7:49 PM
Moon Waning Gibbous

Today is forecast to be Cooler than yesterday. Showers of rain and snow early.

Pressure 29.98 in
Visibility 10.0 miles
Clouds Scattered Clouds 2900 ft
Overcast 5500 ft
Windchill 30 °F
Dew Point 30 °F
Humidity 70%
Rainfall 0.00 in
Snow Depth Not available.
UV 0 out of 16
Pollen 1.40 out of 12
Air Quality Not available.
Flu Activity Sporadic
SPECI KMFI 170636Z AUTO 11015G23KT 10SM SCT029 OVC055 04/M01 A2998 RMK AO2 PK WND 12030/0620 RAB05E26 P0000 T00391011

More Conditions Fewer Conditions

Pressure 29.98 in
Visibility 10.0 miles
Clouds Scattered Clouds 2900 ft
Overcast 5500 ft
Windchill 30 °F
Dew Point 30 °F
Humidity 70%
Rainfall 0.00 in
Snow Depth Not available.
UV 0 out of 16
Pollen 1.40 out of 12
Air Quality Not available.
Flu Activity Sporadic
SPECI KMFI 170636Z AUTO 11015G23KT 10SM SCT029 OVC055 04/M01 A2998 RMK AO2 PK WND 12030/0620 RAB05E26 P0000 T00391011

More Conditions Fewer Conditions

10-Day Forecast

Almanac

Astronomy

Apr. 17, 2014 Rise Set
Actual Time 6:14 AM CDT 7:49 PM CDT
Civil Twilight 5:43 AM CDT 8:20 PM CDT
Nautical Twilight 5:06 AM CDT 8:57 PM CDT
Astronomical Twilight 4:26 AM CDT 9:37 PM CDT
Moon 10:40 PM CDT 7:41 AM CDT
Length of Visible Light 14h 36m
Length of Day
13h 35m
Tomorrow will be 2m 57s longer.
Waning Gibbous, 96% of the Moon is Illuminated
Today
Waning Gibbous
Apr 22
Last Quarter
Apr 29
New
May 6
First Quarter
May 14
Full

Today's Extremes

State Highs State Lows

Community

  • Sunset over the Bay
    Sunset over the Bay
  • symphony in blue....
    symphony in blue....
  • Dawn Surprise
    Dawn Surprise
  • Yucca delight
    Yucca delight
  • Sunset inside of the Ocean
    Sunset inside of the Ocean

WunderPhotos

Upload Photos

1,701,875 photos uploaded!

WunderBlogs® & News

Nearby

Snow Depth

Station Depth Elevation
No new snow has been reported.

Coastal Water Temperatures

Place Temperature
No Stations Reporting

Earthquake Activity

City Distance Mag. Time & Date
No recent earthquake activity has been reported nearby.
Minimum magnitude displayed is 2.5.

Nearby Weather Stations

Station Location Temp. Windchill Dew Point Humidity Wind Precip. Elev Updated Type
WIDOT Abbotsford - STH 29 3 mi E of Abbo, Abbotsford, WI 37 °F 37 °F 33 °F 88% ESE  at  0 mph 0.00 in / hr 1400 ft 12:52 AM CDT MADIS
MesoWest HUMBIR , Humbird, WI 41 °F 41 °F - - North  at  - 0.00 in / hr 1092 ft 12:40 AM CDT MADIS

Show More Stations Show Fewer Stations

What do you think?

We're not finished. Please let us know what you like, what you don't like, and what you are still missing.